X  Sluiten METAR luchtvaart weer gegevens      EHGG Eelde Airport
Temperatuur
7°C Temperatuur
4°C Dauwpunt
81% Vochtigheid



Wind
10 KM/U
6 MPH
3 M/S
5 KTS



210°
ZZW
Huidig weer

Grotendeels bewolkt Grotendeels bewolkt
Luchtdruk 1009.82 (hPa) - 29.82 (inHg)
Zicht 6 (mijl) - 9.7 (km)
Vliegveld
Vliegveld code EHGG

Locatie : Eelde Airport
Afstand: 90 (km)

Metar:
EHGG 171625Z AUTO 21005KT 9999 BKN036 BKN041 07/04 Q1010 NOSIG

Tijd: 17-04-2024 18:25 CEST